sensor_id;sensor_type;location;lat;lon;timestamp;P1;durP1;ratioP1;P2;durP2;ratioP2
41514;SDS011;27247;48.020;16.720;2023-05-14T00:03:25;33.00;;;20.10;;
41514;SDS011;27247;48.020;16.720;2023-05-14T00:07:35;32.00;;;19.70;;
41514;SDS011;27247;48.020;16.720;2023-05-14T00:11:46;31.83;;;20.38;;
41514;SDS011;27247;48.020;16.720;2023-05-14T00:15:57;29.73;;;20.08;;
41514;SDS011;27247;48.020;16.720;2023-05-14T00:20:07;30.27;;;20.17;;
41514;SDS011;27247;48.020;16.720;2023-05-14T00:24:18;30.92;;;20.33;;
41514;SDS011;27247;48.020;16.720;2023-05-14T00:28:28;28.17;;;19.73;;
41514;SDS011;27247;48.020;16.720;2023-05-14T00:32:38;32.97;;;20.23;;
41514;SDS011;27247;48.020;16.720;2023-05-14T00:36:49;26.63;;;18.83;;
41514;SDS011;27247;48.020;16.720;2023-05-14T00:41:00;31.65;;;20.23;;
41514;SDS011;27247;48.020;16.720;2023-05-14T00:45:10;27.40;;;19.33;;
41514;SDS011;27247;48.020;16.720;2023-05-14T00:49:21;29.85;;;19.30;;
41514;SDS011;27247;48.020;16.720;2023-05-14T00:53:32;28.83;;;19.23;;
41514;SDS011;27247;48.020;16.720;2023-05-14T00:57:42;26.75;;;19.10;;
41514;SDS011;27247;48.020;16.720;2023-05-14T01:01:53;24.20;;;18.38;;
41514;SDS011;27247;48.020;16.720;2023-05-14T01:10:48;29.05;;;18.67;;
41514;SDS011;27247;48.020;16.720;2023-05-14T01:15:20;27.17;;;18.25;;
41514;SDS011;27247;48.020;16.720;2023-05-14T01:19:43;25.92;;;18.05;;
41514;SDS011;27247;48.020;16.720;2023-05-14T01:23:55;28.48;;;18.33;;
41514;SDS011;27247;48.020;16.720;2023-05-14T01:28:14;24.43;;;17.43;;
41514;SDS011;27247;48.020;16.720;2023-05-14T01:32:29;24.75;;;17.45;;
41514;SDS011;27247;48.020;16.720;2023-05-14T01:36:42;24.88;;;17.13;;
41514;SDS011;27247;48.020;16.720;2023-05-14T01:40:53;22.50;;;16.50;;
41514;SDS011;27247;48.020;16.720;2023-05-14T01:45:04;22.63;;;16.90;;
41514;SDS011;27247;48.020;16.720;2023-05-14T01:49:15;24.15;;;16.27;;
41514;SDS011;27247;48.020;16.720;2023-05-14T01:53:27;23.88;;;17.05;;
41514;SDS011;27247;48.020;16.720;2023-05-14T01:57:37;23.65;;;15.48;;
41514;SDS011;27247;48.020;16.720;2023-05-14T02:01:47;25.42;;;17.58;;
41514;SDS011;27247;48.020;16.720;2023-05-14T02:05:58;23.35;;;16.58;;
41514;SDS011;27247;48.020;16.720;2023-05-14T02:10:08;23.77;;;17.27;;
41514;SDS011;27247;48.020;16.720;2023-05-14T02:14:19;21.88;;;15.85;;
41514;SDS011;27247;48.020;16.720;2023-05-14T02:18:30;21.60;;;15.82;;
41514;SDS011;27247;48.020;16.720;2023-05-14T02:22:40;23.73;;;16.35;;
41514;SDS011;27247;48.020;16.720;2023-05-14T02:26:55;23.45;;;15.52;;
41514;SDS011;27247;48.020;16.720;2023-05-14T02:31:05;21.67;;;16.23;;
41514;SDS011;27247;48.020;16.720;2023-05-14T02:35:15;22.30;;;15.63;;
41514;SDS011;27247;48.020;16.720;2023-05-14T02:39:26;25.48;;;17.25;;
41514;SDS011;27247;48.020;16.720;2023-05-14T02:43:36;22.23;;;15.80;;
41514;SDS011;27247;48.020;16.720;2023-05-14T02:47:46;22.80;;;16.50;;
41514;SDS011;27247;48.020;16.720;2023-05-14T02:51:57;22.85;;;16.83;;
41514;SDS011;27247;48.020;16.720;2023-05-14T02:56:09;23.63;;;16.58;;
41514;SDS011;27247;48.020;16.720;2023-05-14T03:00:20;23.58;;;17.02;;
41514;SDS011;27247;48.020;16.720;2023-05-14T03:04:30;21.88;;;15.43;;
41514;SDS011;27247;48.020;16.720;2023-05-14T03:08:40;25.65;;;16.13;;
41514;SDS011;27247;48.020;16.720;2023-05-14T03:12:51;22.70;;;15.50;;
41514;SDS011;27247;48.020;16.720;2023-05-14T03:17:01;21.17;;;15.93;;
41514;SDS011;27247;48.020;16.720;2023-05-14T03:21:12;19.75;;;15.07;;
41514;SDS011;27247;48.020;16.720;2023-05-14T03:25:23;22.98;;;15.38;;
41514;SDS011;27247;48.020;16.720;2023-05-14T03:29:33;19.63;;;14.90;;
41514;SDS011;27247;48.020;16.720;2023-05-14T03:33:43;22.57;;;15.57;;
41514;SDS011;27247;48.020;16.720;2023-05-14T03:37:54;19.77;;;14.50;;
41514;SDS011;27247;48.020;16.720;2023-05-14T03:42:07;20.38;;;14.68;;
41514;SDS011;27247;48.020;16.720;2023-05-14T03:46:17;19.00;;;14.50;;
41514;SDS011;27247;48.020;16.720;2023-05-14T03:50:27;20.87;;;15.37;;
41514;SDS011;27247;48.020;16.720;2023-05-14T03:54:38;20.40;;;15.20;;
41514;SDS011;27247;48.020;16.720;2023-05-14T03:58:50;21.60;;;16.17;;
41514;SDS011;27247;48.020;16.720;2023-05-14T04:03:01;19.80;;;14.95;;
41514;SDS011;27247;48.020;16.720;2023-05-14T04:07:12;23.75;;;15.73;;
41514;SDS011;27247;48.020;16.720;2023-05-14T04:11:22;22.20;;;14.82;;
41514;SDS011;27247;48.020;16.720;2023-05-14T04:15:32;20.63;;;14.77;;
41514;SDS011;27247;48.020;16.720;2023-05-14T04:19:44;22.25;;;15.15;;
41514;SDS011;27247;48.020;16.720;2023-05-14T04:23:55;20.60;;;14.18;;
41514;SDS011;27247;48.020;16.720;2023-05-14T04:28:05;17.85;;;13.75;;
41514;SDS011;27247;48.020;16.720;2023-05-14T04:32:15;18.13;;;14.30;;
41514;SDS011;27247;48.020;16.720;2023-05-14T04:36:26;17.15;;;13.57;;
41514;SDS011;27247;48.020;16.720;2023-05-14T04:40:37;21.40;;;14.20;;
41514;SDS011;27247;48.020;16.720;2023-05-14T04:44:47;19.17;;;13.63;;
41514;SDS011;27247;48.020;16.720;2023-05-14T04:48:58;16.42;;;12.48;;
41514;SDS011;27247;48.020;16.720;2023-05-14T04:53:08;20.92;;;13.75;;
41514;SDS011;27247;48.020;16.720;2023-05-14T04:57:19;15.75;;;12.38;;
41514;SDS011;27247;48.020;16.720;2023-05-14T05:01:30;16.75;;;13.35;;
41514;SDS011;27247;48.020;16.720;2023-05-14T05:05:41;17.38;;;12.45;;
41514;SDS011;27247;48.020;16.720;2023-05-14T05:09:51;17.20;;;12.10;;
41514;SDS011;27247;48.020;16.720;2023-05-14T05:14:01;14.60;;;11.55;;
41514;SDS011;27247;48.020;16.720;2023-05-14T05:18:12;13.80;;;10.50;;
41514;SDS011;27247;48.020;16.720;2023-05-14T05:22:22;15.05;;;10.65;;
41514;SDS011;27247;48.020;16.720;2023-05-14T05:26:33;14.45;;;10.57;;
41514;SDS011;27247;48.020;16.720;2023-05-14T05:30:45;15.70;;;12.10;;
41514;SDS011;27247;48.020;16.720;2023-05-14T05:34:56;17.58;;;12.05;;
41514;SDS011;27247;48.020;16.720;2023-05-14T05:39:06;14.15;;;11.00;;
41514;SDS011;27247;48.020;16.720;2023-05-14T05:43:17;16.60;;;11.55;;
41514;SDS011;27247;48.020;16.720;2023-05-14T05:47:27;16.05;;;11.15;;
41514;SDS011;27247;48.020;16.720;2023-05-14T05:51:37;15.05;;;11.25;;
41514;SDS011;27247;48.020;16.720;2023-05-14T05:55:48;14.37;;;11.00;;
41514;SDS011;27247;48.020;16.720;2023-05-14T06:00:00;13.90;;;10.15;;
41514;SDS011;27247;48.020;16.720;2023-05-14T06:04:18;16.55;;;11.00;;
41514;SDS011;27247;48.020;16.720;2023-05-14T06:08:29;15.27;;;12.05;;
41514;SDS011;27247;48.020;16.720;2023-05-14T06:12:39;15.43;;;10.82;;
41514;SDS011;27247;48.020;16.720;2023-05-14T06:16:49;14.32;;;10.77;;
41514;SDS011;27247;48.020;16.720;2023-05-14T06:21:00;16.87;;;11.37;;
41514;SDS011;27247;48.020;16.720;2023-05-14T06:25:10;16.73;;;10.97;;
41514;SDS011;27247;48.020;16.720;2023-05-14T06:29:21;17.92;;;11.77;;
41514;SDS011;27247;48.020;16.720;2023-05-14T06:33:31;14.90;;;11.10;;
41514;SDS011;27247;48.020;16.720;2023-05-14T06:37:41;18.47;;;12.40;;
41514;SDS011;27247;48.020;16.720;2023-05-14T06:41:52;18.70;;;11.97;;
41514;SDS011;27247;48.020;16.720;2023-05-14T06:46:02;16.00;;;12.05;;
41514;SDS011;27247;48.020;16.720;2023-05-14T06:50:12;17.73;;;13.20;;
41514;SDS011;27247;48.020;16.720;2023-05-14T06:54:23;21.10;;;13.43;;
41514;SDS011;27247;48.020;16.720;2023-05-14T06:58:33;21.45;;;16.25;;
41514;SDS011;27247;48.020;16.720;2023-05-14T07:02:43;20.37;;;15.40;;
41514;SDS011;27247;48.020;16.720;2023-05-14T07:06:54;22.63;;;16.88;;
41514;SDS011;27247;48.020;16.720;2023-05-14T07:11:04;19.70;;;15.77;;
41514;SDS011;27247;48.020;16.720;2023-05-14T07:15:14;20.48;;;15.48;;
41514;SDS011;27247;48.020;16.720;2023-05-14T07:19:25;17.80;;;14.27;;
41514;SDS011;27247;48.020;16.720;2023-05-14T07:23:38;18.08;;;14.57;;
41514;SDS011;27247;48.020;16.720;2023-05-14T07:27:49;17.20;;;12.77;;
41514;SDS011;27247;48.020;16.720;2023-05-14T07:31:59;17.90;;;13.43;;
41514;SDS011;27247;48.020;16.720;2023-05-14T07:36:10;16.02;;;13.07;;
41514;SDS011;27247;48.020;16.720;2023-05-14T07:40:20;17.48;;;12.38;;
41514;SDS011;27247;48.020;16.720;2023-05-14T07:44:31;17.33;;;13.10;;
41514;SDS011;27247;48.020;16.720;2023-05-14T07:48:41;20.83;;;12.88;;
41514;SDS011;27247;48.020;16.720;2023-05-14T07:52:52;17.13;;;13.40;;
41514;SDS011;27247;48.020;16.720;2023-05-14T07:57:02;18.02;;;13.57;;
41514;SDS011;27247;48.020;16.720;2023-05-14T08:01:13;18.88;;;13.43;;
41514;SDS011;27247;48.020;16.720;2023-05-14T08:05:23;16.70;;;13.73;;
41514;SDS011;27247;48.020;16.720;2023-05-14T08:09:33;20.48;;;14.75;;
41514;SDS011;27247;48.020;16.720;2023-05-14T08:13:44;17.90;;;13.95;;
41514;SDS011;27247;48.020;16.720;2023-05-14T08:17:54;20.10;;;15.00;;
41514;SDS011;27247;48.020;16.720;2023-05-14T08:22:04;18.08;;;14.73;;
41514;SDS011;27247;48.020;16.720;2023-05-14T08:26:16;19.63;;;14.02;;
41514;SDS011;27247;48.020;16.720;2023-05-14T08:30:26;18.45;;;14.45;;
41514;SDS011;27247;48.020;16.720;2023-05-14T08:34:37;18.70;;;14.38;;
41514;SDS011;27247;48.020;16.720;2023-05-14T08:38:47;18.63;;;14.53;;
41514;SDS011;27247;48.020;16.720;2023-05-14T08:42:59;20.40;;;13.45;;
41514;SDS011;27247;48.020;16.720;2023-05-14T08:47:10;18.80;;;14.38;;
41514;SDS011;27247;48.020;16.720;2023-05-14T08:51:23;20.63;;;15.23;;
41514;SDS011;27247;48.020;16.720;2023-05-14T08:55:35;25.95;;;16.58;;
41514;SDS011;27247;48.020;16.720;2023-05-14T08:59:46;23.35;;;16.35;;
41514;SDS011;27247;48.020;16.720;2023-05-14T09:03:57;24.63;;;17.05;;
41514;SDS011;27247;48.020;16.720;2023-05-14T09:08:10;22.83;;;17.33;;
41514;SDS011;27247;48.020;16.720;2023-05-14T09:12:21;23.20;;;18.08;;
41514;SDS011;27247;48.020;16.720;2023-05-14T09:16:31;25.58;;;18.63;;
41514;SDS011;27247;48.020;16.720;2023-05-14T09:20:42;23.92;;;18.48;;
41514;SDS011;27247;48.020;16.720;2023-05-14T09:25:02;23.70;;;17.13;;
41514;SDS011;27247;48.020;16.720;2023-05-14T09:29:14;23.65;;;17.70;;
41514;SDS011;27247;48.020;16.720;2023-05-14T09:33:25;25.33;;;17.03;;
41514;SDS011;27247;48.020;16.720;2023-05-14T09:37:39;24.92;;;17.45;;
41514;SDS011;27247;48.020;16.720;2023-05-14T09:41:51;23.02;;;16.20;;
41514;SDS011;27247;48.020;16.720;2023-05-14T09:46:01;21.35;;;16.25;;
41514;SDS011;27247;48.020;16.720;2023-05-14T09:50:12;19.60;;;15.70;;
41514;SDS011;27247;48.020;16.720;2023-05-14T09:54:23;21.17;;;15.60;;
41514;SDS011;27247;48.020;16.720;2023-05-14T09:58:37;21.30;;;15.38;;
41514;SDS011;27247;48.020;16.720;2023-05-14T10:02:48;23.33;;;15.38;;
41514;SDS011;27247;48.020;16.720;2023-05-14T10:07:02;22.77;;;16.58;;
41514;SDS011;27247;48.020;16.720;2023-05-14T10:11:13;22.05;;;15.40;;
41514;SDS011;27247;48.020;16.720;2023-05-14T10:15:38;22.80;;;15.68;;
41514;SDS011;27247;48.020;16.720;2023-05-14T10:19:53;20.90;;;14.93;;
41514;SDS011;27247;48.020;16.720;2023-05-14T10:24:07;26.98;;;16.63;;
41514;SDS011;27247;48.020;16.720;2023-05-14T10:28:19;22.52;;;16.25;;
41514;SDS011;27247;48.020;16.720;2023-05-14T10:32:30;24.33;;;16.25;;
41514;SDS011;27247;48.020;16.720;2023-05-14T10:36:42;20.33;;;15.38;;
41514;SDS011;27247;48.020;16.720;2023-05-14T10:40:59;21.33;;;15.95;;
41514;SDS011;27247;48.020;16.720;2023-05-14T10:45:14;22.05;;;16.00;;
41514;SDS011;27247;48.020;16.720;2023-05-14T10:49:26;26.05;;;16.70;;
41514;SDS011;27247;48.020;16.720;2023-05-14T10:57:48;20.85;;;14.70;;
41514;SDS011;27247;48.020;16.720;2023-05-14T11:01:58;20.30;;;15.87;;
41514;SDS011;27247;48.020;16.720;2023-05-14T11:06:09;19.80;;;13.77;;
41514;SDS011;27247;48.020;16.720;2023-05-14T11:10:21;22.42;;;14.80;;
41514;SDS011;27247;48.020;16.720;2023-05-14T11:14:32;20.27;;;13.75;;
41514;SDS011;27247;48.020;16.720;2023-05-14T11:18:42;22.42;;;14.02;;
41514;SDS011;27247;48.020;16.720;2023-05-14T11:22:53;19.65;;;13.32;;
41514;SDS011;27247;48.020;16.720;2023-05-14T11:27:04;19.33;;;13.73;;
41514;SDS011;27247;48.020;16.720;2023-05-14T11:31:17;19.65;;;13.80;;
41514;SDS011;27247;48.020;16.720;2023-05-14T11:35:27;16.60;;;12.55;;
41514;SDS011;27247;48.020;16.720;2023-05-14T11:39:38;18.90;;;13.33;;
41514;SDS011;27247;48.020;16.720;2023-05-14T11:43:55;18.80;;;13.95;;
41514;SDS011;27247;48.020;16.720;2023-05-14T11:48:15;16.20;;;12.15;;
41514;SDS011;27247;48.020;16.720;2023-05-14T11:52:25;17.42;;;11.90;;
41514;SDS011;27247;48.020;16.720;2023-05-14T11:56:35;17.30;;;11.70;;
41514;SDS011;27247;48.020;16.720;2023-05-14T12:00:49;19.27;;;13.35;;
41514;SDS011;27247;48.020;16.720;2023-05-14T12:05:00;20.98;;;13.38;;
41514;SDS011;27247;48.020;16.720;2023-05-14T12:09:11;17.42;;;13.07;;
41514;SDS011;27247;48.020;16.720;2023-05-14T12:13:25;17.58;;;12.80;;
41514;SDS011;27247;48.020;16.720;2023-05-14T12:17:40;17.80;;;13.85;;
41514;SDS011;27247;48.020;16.720;2023-05-14T12:21:50;26.48;;;14.30;;
41514;SDS011;27247;48.020;16.720;2023-05-14T12:26:04;22.60;;;14.85;;
41514;SDS011;27247;48.020;16.720;2023-05-14T12:30:16;22.85;;;15.02;;
41514;SDS011;27247;48.020;16.720;2023-05-14T12:34:26;26.08;;;16.90;;
41514;SDS011;27247;48.020;16.720;2023-05-14T12:38:37;22.67;;;18.48;;
41514;SDS011;27247;48.020;16.720;2023-05-14T12:42:49;25.45;;;19.80;;
41514;SDS011;27247;48.020;16.720;2023-05-14T12:47:00;25.17;;;19.70;;
41514;SDS011;27247;48.020;16.720;2023-05-14T12:51:11;29.75;;;20.30;;
41514;SDS011;27247;48.020;16.720;2023-05-14T12:55:21;24.67;;;17.20;;
41514;SDS011;27247;48.020;16.720;2023-05-14T12:59:32;22.70;;;18.33;;
41514;SDS011;27247;48.020;16.720;2023-05-14T13:03:42;22.52;;;17.30;;
41514;SDS011;27247;48.020;16.720;2023-05-14T13:07:52;22.80;;;16.25;;
41514;SDS011;27247;48.020;16.720;2023-05-14T13:12:03;19.03;;;15.10;;
41514;SDS011;27247;48.020;16.720;2023-05-14T13:16:14;22.85;;;16.25;;
41514;SDS011;27247;48.020;16.720;2023-05-14T13:20:25;25.98;;;17.33;;
41514;SDS011;27247;48.020;16.720;2023-05-14T13:24:38;20.25;;;15.80;;
41514;SDS011;27247;48.020;16.720;2023-05-14T13:28:50;21.45;;;17.13;;
41514;SDS011;27247;48.020;16.720;2023-05-14T13:33:00;22.75;;;18.30;;
41514;SDS011;27247;48.020;16.720;2023-05-14T13:37:10;20.40;;;16.55;;
41514;SDS011;27247;48.020;16.720;2023-05-14T13:41:21;22.13;;;16.23;;
41514;SDS011;27247;48.020;16.720;2023-05-14T13:45:31;22.58;;;17.42;;
41514;SDS011;27247;48.020;16.720;2023-05-14T13:49:42;23.65;;;17.42;;
41514;SDS011;27247;48.020;16.720;2023-05-14T13:53:52;21.80;;;16.03;;
41514;SDS011;27247;48.020;16.720;2023-05-14T13:58:02;21.33;;;15.37;;
41514;SDS011;27247;48.020;16.720;2023-05-14T14:02:13;20.58;;;15.30;;
41514;SDS011;27247;48.020;16.720;2023-05-14T14:06:24;21.83;;;15.32;;
41514;SDS011;27247;48.020;16.720;2023-05-14T14:10:36;20.08;;;15.60;;
41514;SDS011;27247;48.020;16.720;2023-05-14T14:14:49;20.17;;;15.32;;
41514;SDS011;27247;48.020;16.720;2023-05-14T14:19:00;21.45;;;15.00;;
41514;SDS011;27247;48.020;16.720;2023-05-14T14:23:10;20.53;;;14.73;;
41514;SDS011;27247;48.020;16.720;2023-05-14T14:27:21;17.87;;;13.43;;
41514;SDS011;27247;48.020;16.720;2023-05-14T14:31:33;18.35;;;13.13;;
41514;SDS011;27247;48.020;16.720;2023-05-14T14:35:45;17.85;;;12.10;;
41514;SDS011;27247;48.020;16.720;2023-05-14T14:39:56;16.05;;;12.18;;
41514;SDS011;27247;48.020;16.720;2023-05-14T14:44:06;18.87;;;12.83;;
41514;SDS011;27247;48.020;16.720;2023-05-14T14:48:26;19.45;;;12.88;;
41514;SDS011;27247;48.020;16.720;2023-05-14T14:52:42;18.25;;;11.98;;
41514;SDS011;27247;48.020;16.720;2023-05-14T14:56:54;16.90;;;12.05;;
41514;SDS011;27247;48.020;16.720;2023-05-14T15:01:05;16.75;;;12.30;;
41514;SDS011;27247;48.020;16.720;2023-05-14T15:05:15;16.55;;;12.23;;
41514;SDS011;27247;48.020;16.720;2023-05-14T15:09:25;17.03;;;12.17;;
41514;SDS011;27247;48.020;16.720;2023-05-14T15:13:36;16.67;;;13.05;;
41514;SDS011;27247;48.020;16.720;2023-05-14T15:17:46;17.65;;;12.82;;
41514;SDS011;27247;48.020;16.720;2023-05-14T15:21:57;18.17;;;13.13;;
41514;SDS011;27247;48.020;16.720;2023-05-14T15:26:07;16.65;;;12.25;;
41514;SDS011;27247;48.020;16.720;2023-05-14T15:30:17;18.93;;;12.37;;
41514;SDS011;27247;48.020;16.720;2023-05-14T15:34:28;17.70;;;14.50;;
41514;SDS011;27247;48.020;16.720;2023-05-14T15:38:38;16.83;;;12.67;;
41514;SDS011;27247;48.020;16.720;2023-05-14T15:42:49;16.10;;;12.35;;
41514;SDS011;27247;48.020;16.720;2023-05-14T15:46:59;16.30;;;12.88;;
41514;SDS011;27247;48.020;16.720;2023-05-14T15:51:10;18.73;;;13.63;;
41514;SDS011;27247;48.020;16.720;2023-05-14T15:55:20;18.93;;;13.27;;
41514;SDS011;27247;48.020;16.720;2023-05-14T15:59:30;19.58;;;13.48;;
41514;SDS011;27247;48.020;16.720;2023-05-14T16:03:41;18.93;;;13.07;;
41514;SDS011;27247;48.020;16.720;2023-05-14T16:07:51;14.52;;;11.23;;
41514;SDS011;27247;48.020;16.720;2023-05-14T16:12:01;18.20;;;11.75;;
41514;SDS011;27247;48.020;16.720;2023-05-14T16:16:13;16.60;;;11.73;;
41514;SDS011;27247;48.020;16.720;2023-05-14T16:20:24;17.90;;;11.93;;
41514;SDS011;27247;48.020;16.720;2023-05-14T16:24:35;16.65;;;11.30;;
41514;SDS011;27247;48.020;16.720;2023-05-14T16:28:45;14.95;;;11.32;;
41514;SDS011;27247;48.020;16.720;2023-05-14T16:32:55;15.20;;;11.13;;
41514;SDS011;27247;48.020;16.720;2023-05-14T16:37:06;13.70;;;10.63;;
41514;SDS011;27247;48.020;16.720;2023-05-14T16:41:16;15.80;;;11.63;;
41514;SDS011;27247;48.020;16.720;2023-05-14T16:45:30;15.07;;;11.77;;
41514;SDS011;27247;48.020;16.720;2023-05-14T16:49:43;14.63;;;11.15;;
41514;SDS011;27247;48.020;16.720;2023-05-14T16:53:54;12.90;;;9.57;;
41514;SDS011;27247;48.020;16.720;2023-05-14T16:58:04;14.43;;;10.23;;
41514;SDS011;27247;48.020;16.720;2023-05-14T17:02:15;12.73;;;10.13;;
41514;SDS011;27247;48.020;16.720;2023-05-14T17:06:25;12.27;;;9.35;;
41514;SDS011;27247;48.020;16.720;2023-05-14T17:10:36;11.75;;;8.77;;
41514;SDS011;27247;48.020;16.720;2023-05-14T17:14:46;13.63;;;9.85;;
41514;SDS011;27247;48.020;16.720;2023-05-14T17:18:57;12.60;;;9.37;;
41514;SDS011;27247;48.020;16.720;2023-05-14T17:23:07;13.30;;;9.02;;
41514;SDS011;27247;48.020;16.720;2023-05-14T17:27:17;12.10;;;10.02;;
41514;SDS011;27247;48.020;16.720;2023-05-14T17:31:28;12.95;;;9.82;;
41514;SDS011;27247;48.020;16.720;2023-05-14T17:35:38;15.05;;;10.43;;
41514;SDS011;27247;48.020;16.720;2023-05-14T17:39:49;16.10;;;10.63;;
41514;SDS011;27247;48.020;16.720;2023-05-14T17:44:00;11.75;;;10.52;;
41514;SDS011;27247;48.020;16.720;2023-05-14T17:48:10;14.27;;;10.38;;
41514;SDS011;27247;48.020;16.720;2023-05-14T17:52:20;13.27;;;10.85;;
41514;SDS011;27247;48.020;16.720;2023-05-14T17:56:32;12.63;;;10.00;;
41514;SDS011;27247;48.020;16.720;2023-05-14T18:00:42;12.23;;;9.00;;
41514;SDS011;27247;48.020;16.720;2023-05-14T18:04:53;10.30;;;8.70;;
41514;SDS011;27247;48.020;16.720;2023-05-14T18:09:03;12.07;;;9.03;;
41514;SDS011;27247;48.020;16.720;2023-05-14T18:13:13;9.70;;;7.47;;
41514;SDS011;27247;48.020;16.720;2023-05-14T18:17:24;11.07;;;8.27;;
41514;SDS011;27247;48.020;16.720;2023-05-14T18:21:34;10.02;;;8.27;;
41514;SDS011;27247;48.020;16.720;2023-05-14T18:25:45;11.38;;;7.70;;
41514;SDS011;27247;48.020;16.720;2023-05-14T18:29:57;9.95;;;8.65;;
41514;SDS011;27247;48.020;16.720;2023-05-14T18:34:07;10.27;;;7.90;;
41514;SDS011;27247;48.020;16.720;2023-05-14T18:38:18;8.90;;;8.00;;
41514;SDS011;27247;48.020;16.720;2023-05-14T18:42:29;20.55;;;12.80;;
41514;SDS011;27247;48.020;16.720;2023-05-14T18:46:39;50.53;;;29.63;;
41514;SDS011;27247;48.020;16.720;2023-05-14T18:50:50;27.58;;;17.58;;
41514;SDS011;27247;48.020;16.720;2023-05-14T18:55:00;11.27;;;8.57;;
41514;SDS011;27247;48.020;16.720;2023-05-14T18:59:11;9.90;;;8.48;;
41514;SDS011;27247;48.020;16.720;2023-05-14T19:03:21;10.70;;;8.48;;
41514;SDS011;27247;48.020;16.720;2023-05-14T19:07:32;12.52;;;9.88;;
41514;SDS011;27247;48.020;16.720;2023-05-14T19:11:45;12.85;;;10.20;;
41514;SDS011;27247;48.020;16.720;2023-05-14T19:15:56;11.88;;;9.30;;
41514;SDS011;27247;48.020;16.720;2023-05-14T19:20:06;15.05;;;11.18;;
41514;SDS011;27247;48.020;16.720;2023-05-14T19:24:17;13.70;;;11.13;;
41514;SDS011;27247;48.020;16.720;2023-05-14T19:28:28;12.83;;;10.30;;
41514;SDS011;27247;48.020;16.720;2023-05-14T19:32:38;14.07;;;11.63;;
41514;SDS011;27247;48.020;16.720;2023-05-14T19:36:49;16.83;;;13.63;;
41514;SDS011;27247;48.020;16.720;2023-05-14T19:40:59;15.15;;;12.15;;
41514;SDS011;27247;48.020;16.720;2023-05-14T19:45:10;18.00;;;12.50;;
41514;SDS011;27247;48.020;16.720;2023-05-14T19:49:20;14.70;;;11.40;;
41514;SDS011;27247;48.020;16.720;2023-05-14T19:53:31;17.15;;;13.07;;
41514;SDS011;27247;48.020;16.720;2023-05-14T19:57:41;17.05;;;12.75;;
41514;SDS011;27247;48.020;16.720;2023-05-14T20:01:51;16.07;;;12.37;;
41514;SDS011;27247;48.020;16.720;2023-05-14T20:06:03;23.00;;;14.70;;
41514;SDS011;27247;48.020;16.720;2023-05-14T20:10:13;23.27;;;16.88;;
41514;SDS011;27247;48.020;16.720;2023-05-14T20:14:24;31.98;;;19.95;;
41514;SDS011;27247;48.020;16.720;2023-05-14T20:18:34;20.33;;;14.93;;
41514;SDS011;27247;48.020;16.720;2023-05-14T20:22:45;18.98;;;14.30;;
41514;SDS011;27247;48.020;16.720;2023-05-14T20:26:55;19.52;;;14.38;;
41514;SDS011;27247;48.020;16.720;2023-05-14T20:31:06;19.55;;;14.50;;
41514;SDS011;27247;48.020;16.720;2023-05-14T20:35:16;20.02;;;14.48;;
41514;SDS011;27247;48.020;16.720;2023-05-14T20:39:27;18.70;;;14.38;;
41514;SDS011;27247;48.020;16.720;2023-05-14T20:43:37;19.27;;;14.35;;
41514;SDS011;27247;48.020;16.720;2023-05-14T20:47:47;20.30;;;15.27;;
41514;SDS011;27247;48.020;16.720;2023-05-14T20:51:57;19.97;;;15.10;;
41514;SDS011;27247;48.020;16.720;2023-05-14T20:56:08;20.08;;;14.45;;
41514;SDS011;27247;48.020;16.720;2023-05-14T21:00:18;23.33;;;15.98;;
41514;SDS011;27247;48.020;16.720;2023-05-14T21:04:29;20.70;;;14.70;;
41514;SDS011;27247;48.020;16.720;2023-05-14T21:08:39;20.27;;;13.17;;
41514;SDS011;27247;48.020;16.720;2023-05-14T21:12:50;20.52;;;14.52;;
41514;SDS011;27247;48.020;16.720;2023-05-14T21:17:01;20.17;;;14.48;;
41514;SDS011;27247;48.020;16.720;2023-05-14T21:21:12;20.98;;;15.32;;
41514;SDS011;27247;48.020;16.720;2023-05-14T21:25:22;20.95;;;14.98;;
41514;SDS011;27247;48.020;16.720;2023-05-14T21:29:33;19.40;;;14.30;;
41514;SDS011;27247;48.020;16.720;2023-05-14T21:33:43;20.58;;;14.85;;
41514;SDS011;27247;48.020;16.720;2023-05-14T21:37:53;25.57;;;17.70;;
41514;SDS011;27247;48.020;16.720;2023-05-14T21:42:04;23.35;;;16.00;;
41514;SDS011;27247;48.020;16.720;2023-05-14T21:46:15;25.08;;;17.67;;
41514;SDS011;27247;48.020;16.720;2023-05-14T21:50:25;23.33;;;16.20;;
41514;SDS011;27247;48.020;16.720;2023-05-14T21:54:36;21.70;;;15.85;;
41514;SDS011;27247;48.020;16.720;2023-05-14T21:58:46;23.05;;;16.10;;
41514;SDS011;27247;48.020;16.720;2023-05-14T22:02:56;24.57;;;15.90;;
41514;SDS011;27247;48.020;16.720;2023-05-14T22:07:07;18.83;;;13.75;;
41514;SDS011;27247;48.020;16.720;2023-05-14T22:11:18;19.38;;;14.07;;
41514;SDS011;27247;48.020;16.720;2023-05-14T22:15:28;21.05;;;15.02;;
41514;SDS011;27247;48.020;16.720;2023-05-14T22:19:39;22.00;;;14.98;;
41514;SDS011;27247;48.020;16.720;2023-05-14T22:23:49;16.20;;;11.90;;
41514;SDS011;27247;48.020;16.720;2023-05-14T22:28:00;20.92;;;14.23;;
41514;SDS011;27247;48.020;16.720;2023-05-14T22:32:10;19.70;;;13.85;;
41514;SDS011;27247;48.020;16.720;2023-05-14T22:36:20;26.30;;;17.48;;
41514;SDS011;27247;48.020;16.720;2023-05-14T22:40:31;28.95;;;19.15;;
41514;SDS011;27247;48.020;16.720;2023-05-14T22:44:41;30.90;;;19.20;;
41514;SDS011;27247;48.020;16.720;2023-05-14T22:48:51;28.67;;;18.48;;
41514;SDS011;27247;48.020;16.720;2023-05-14T22:53:02;29.10;;;18.45;;
41514;SDS011;27247;48.020;16.720;2023-05-14T22:57:16;26.30;;;17.17;;
41514;SDS011;27247;48.020;16.720;2023-05-14T23:01:44;25.08;;;16.98;;
41514;SDS011;27247;48.020;16.720;2023-05-14T23:05:58;23.52;;;16.30;;
41514;SDS011;27247;48.020;16.720;2023-05-14T23:10:14;23.85;;;15.63;;
41514;SDS011;27247;48.020;16.720;2023-05-14T23:14:37;22.00;;;15.05;;
41514;SDS011;27247;48.020;16.720;2023-05-14T23:18:50;24.10;;;15.52;;
41514;SDS011;27247;48.020;16.720;2023-05-14T23:23:00;19.52;;;14.52;;
41514;SDS011;27247;48.020;16.720;2023-05-14T23:27:17;20.45;;;14.73;;
41514;SDS011;27247;48.020;16.720;2023-05-14T23:36:05;24.55;;;15.18;;
41514;SDS011;27247;48.020;16.720;2023-05-14T23:40:16;24.35;;;15.45;;
41514;SDS011;27247;48.020;16.720;2023-05-14T23:44:26;24.17;;;16.35;;
41514;SDS011;27247;48.020;16.720;2023-05-14T23:48:37;27.10;;;16.83;;
41514;SDS011;27247;48.020;16.720;2023-05-14T23:52:47;24.40;;;16.15;;
41514;SDS011;27247;48.020;16.720;2023-05-14T23:56:57;25.50;;;16.07;;
